createdAt,value
2022-10-05T00:01:28.710Z,63.55
2022-10-05T00:04:12.066Z,62.90
2022-10-05T00:06:42.554Z,63.19
2022-10-05T00:09:21.133Z,65.44
2022-10-05T00:11:52.554Z,65.21
2022-10-05T00:14:27.223Z,64.96
2022-10-05T00:17:00.827Z,68.33
2022-10-05T00:19:36.174Z,69.35
2022-10-05T00:22:15.151Z,68.54
2022-10-05T00:24:45.798Z,66.79
2022-10-05T00:27:22.472Z,68.88
2022-10-05T00:29:55.914Z,67.75
2022-10-05T00:32:28.769Z,64.89
2022-10-05T00:35:00.719Z,66.41
2022-10-05T00:37:31.160Z,65.72
2022-10-05T00:40:01.559Z,64.08
2022-10-05T00:42:48.784Z,63.98
2022-10-05T00:45:24.089Z,62.36
2022-10-05T00:48:11.578Z,62.33
2022-10-05T00:51:01.435Z,62.46
2022-10-05T00:53:45.400Z,62.78
2022-10-05T00:56:34.556Z,63.32
2022-10-05T00:59:20.776Z,63.61
2022-10-05T01:02:00.771Z,63.85
2022-10-05T01:04:44.983Z,63.71
2022-10-05T01:07:26.504Z,63.70
2022-10-05T01:10:06.351Z,63.38
2022-10-05T01:12:47.665Z,63.43
2022-10-05T01:15:25.864Z,63.18
2022-10-05T01:18:05.656Z,63.00
2022-10-05T01:20:55.567Z,63.20
2022-10-05T01:24:06.918Z,63.37
2022-10-05T01:26:51.433Z,63.32
2022-10-05T01:29:31.892Z,63.62
2022-10-05T01:32:12.723Z,63.57
2022-10-05T01:34:49.121Z,63.65
2022-10-05T01:37:28.541Z,63.96
2022-10-05T01:40:14.045Z,63.55
2022-10-05T01:42:59.739Z,63.73
2022-10-05T01:45:44.360Z,63.86
2022-10-05T01:48:25.254Z,63.87
2022-10-05T01:51:07.511Z,64.08
2022-10-05T01:53:52.912Z,65.10
2022-10-05T01:56:33.599Z,64.17
2022-10-05T01:59:16.861Z,63.55
2022-10-05T02:01:58.355Z,63.57
2022-10-05T02:05:00.929Z,63.74
2022-10-05T02:07:33.166Z,63.88
2022-10-05T02:10:12.581Z,64.77
2022-10-05T02:12:44.186Z,67.60
2022-10-05T02:15:19.892Z,69.02
2022-10-05T02:17:59.751Z,68.98
2022-10-05T02:20:35.855Z,69.67
2022-10-05T02:23:12.571Z,69.67
2022-10-05T02:25:48.461Z,70.32
2022-10-05T02:28:25.696Z,71.81
2022-10-05T02:31:01.798Z,72.87
2022-10-05T02:33:38.298Z,73.49
2022-10-05T02:36:18.796Z,72.47
2022-10-05T02:39:05.078Z,73.10
2022-10-05T02:41:50.504Z,74.53
2022-10-05T02:44:29.943Z,75.16
2022-10-05T02:47:10.745Z,75.55
2022-10-05T02:49:50.805Z,74.32
2022-10-05T02:52:32.581Z,74.21
2022-10-05T02:55:10.804Z,76.15
2022-10-05T02:57:47.854Z,75.54
2022-10-05T03:00:23.549Z,75.61
2022-10-05T03:03:05.223Z,76.49
2022-10-05T03:05:43.719Z,76.36
2022-10-05T03:08:22.584Z,76.01
2022-10-05T03:11:03.875Z,76.25
2022-10-05T03:13:45.807Z,75.93
2022-10-05T03:16:32.882Z,76.40
2022-10-05T03:19:19.337Z,77.18
2022-10-05T03:22:05.278Z,77.20
2022-10-05T03:25:03.910Z,76.61
2022-10-05T03:27:46.714Z,76.76
2022-10-05T03:30:21.919Z,75.01
2022-10-05T03:33:04.255Z,74.40
2022-10-05T03:35:47.767Z,73.81
2022-10-05T03:38:30.895Z,75.55
2022-10-05T03:41:09.372Z,76.59
2022-10-05T03:44:07.821Z,77.22
2022-10-05T03:46:53.150Z,77.25
2022-10-05T03:49:41.227Z,77.38
2022-10-05T03:52:19.362Z,78.02
2022-10-05T03:54:59.561Z,78.00
2022-10-05T03:57:34.488Z,78.31
2022-10-05T04:00:15.673Z,78.79
2022-10-05T04:03:00.987Z,79.57
2022-10-05T04:05:36.499Z,79.70
2022-10-05T04:08:13.210Z,80.31
2022-10-05T04:10:51.265Z,81.18
2022-10-05T04:13:32.335Z,81.44
2022-10-05T04:16:09.866Z,82.12
2022-10-05T04:18:44.597Z,81.22
2022-10-05T04:21:24.210Z,80.84
2022-10-05T04:24:01.577Z,81.28
2022-10-05T04:26:44.154Z,81.43
2022-10-05T04:29:22.545Z,81.15
2022-10-05T04:32:10.318Z,81.51
2022-10-05T04:34:58.099Z,81.36
2022-10-05T04:37:37.614Z,81.54
2022-10-05T04:40:22.763Z,81.97
2022-10-05T04:43:08.971Z,82.35
2022-10-05T04:46:01.429Z,82.11
2022-10-05T04:48:51.626Z,82.16
2022-10-05T04:51:38.581Z,83.00
2022-10-05T04:54:23.757Z,83.56
2022-10-05T04:56:59.090Z,83.90
2022-10-05T05:00:17.445Z,84.05
2022-10-05T05:03:06.845Z,84.58
2022-10-05T05:06:15.325Z,84.48
2022-10-05T05:09:20.788Z,84.53
2022-10-05T05:12:04.986Z,84.96
2022-10-05T05:15:00.618Z,85.11
2022-10-05T05:17:53.744Z,85.60
2022-10-05T05:20:31.225Z,85.38
2022-10-05T05:23:11.998Z,85.44
2022-10-05T05:25:47.002Z,85.63
2022-10-05T05:28:33.150Z,85.80
2022-10-05T05:31:15.864Z,85.87
2022-10-05T05:34:00.698Z,86.32
2022-10-05T05:36:46.831Z,86.46
2022-10-05T05:39:27.662Z,86.77
2022-10-05T05:42:05.371Z,86.42
2022-10-05T05:44:44.266Z,86.66
2022-10-05T05:47:24.017Z,86.06
2022-10-05T05:50:22.843Z,86.23
2022-10-05T05:52:58.010Z,86.43
2022-10-05T05:55:34.363Z,85.53
2022-10-05T05:58:15.299Z,86.01
2022-10-05T06:00:51.624Z,86.58
2022-10-05T06:03:33.180Z,86.01
2022-10-05T06:06:09.188Z,85.42
2022-10-05T06:08:45.045Z,85.04
2022-10-05T06:11:30.190Z,84.90
2022-10-05T06:14:07.745Z,84.92
2022-10-05T06:16:46.563Z,84.14
2022-10-05T06:19:24.548Z,83.30
2022-10-05T06:22:01.655Z,84.05
2022-10-05T06:24:40.050Z,84.32
2022-10-05T06:27:29.603Z,84.81
2022-10-05T06:30:10.352Z,85.91
2022-10-05T06:33:07.656Z,87.06
2022-10-05T06:36:03.442Z,87.47
2022-10-05T06:39:06.029Z,87.84
2022-10-05T06:41:48.192Z,87.40
2022-10-05T06:44:24.737Z,85.93
2022-10-05T06:47:32.200Z,86.51
2022-10-05T06:50:24.815Z,85.76
2022-10-05T06:53:32.299Z,85.42
2022-10-05T06:56:11.183Z,85.05
2022-10-05T06:58:53.798Z,84.79
2022-10-05T07:01:40.466Z,81.12
2022-10-05T07:04:39.149Z,78.21
2022-10-05T07:07:19.486Z,75.12
2022-10-05T07:10:06.274Z,73.11
2022-10-05T07:13:07.550Z,70.62
2022-10-05T07:15:48.887Z,67.26
2022-10-05T07:18:43.379Z,63.74
2022-10-05T07:21:26.812Z,59.19
2022-10-05T07:24:08.112Z,56.33
2022-10-05T07:26:46.791Z,54.32
2022-10-05T07:29:26.626Z,54.63
2022-10-05T07:32:08.141Z,55.57
2022-10-05T07:34:53.278Z,54.31
2022-10-05T07:37:48.577Z,51.31
2022-10-05T07:40:25.745Z,48.16
2022-10-05T07:43:10.775Z,48.65
2022-10-05T07:45:49.930Z,48.62
2022-10-05T07:48:24.568Z,49.73
2022-10-05T07:51:03.183Z,51.52
2022-10-05T07:53:40.911Z,51.13
2022-10-05T07:56:20.605Z,51.08
2022-10-05T07:59:03.189Z,49.08
2022-10-05T08:01:37.859Z,49.63
2022-10-05T08:04:15.547Z,48.84
2022-10-05T08:06:55.215Z,48.67
2022-10-05T08:09:38.569Z,49.32
2022-10-05T08:12:32.371Z,47.98
2022-10-05T08:15:15.495Z,47.54
2022-10-05T08:17:55.029Z,46.72
2022-10-05T08:20:43.491Z,45.45
2022-10-05T08:23:25.838Z,41.30
2022-10-05T08:26:12.672Z,38.74
2022-10-05T08:28:47.763Z,38.63
2022-10-05T08:31:26.933Z,37.05
2022-10-05T08:34:08.261Z,35.60
2022-10-05T08:36:56.257Z,34.46
2022-10-05T08:39:31.655Z,34.08
2022-10-05T08:42:48.226Z,34.19
2022-10-05T08:45:54.348Z,33.51
2022-10-05T08:49:04.616Z,32.86
2022-10-05T08:52:14.264Z,30.58
2022-10-05T08:55:27.176Z,31.07
2022-10-05T08:58:40.436Z,30.89
2022-10-05T09:01:22.656Z,31.14
2022-10-05T09:04:19.416Z,33.20
2022-10-05T09:07:17.413Z,35.43
2022-10-05T09:10:44.281Z,36.71
2022-10-05T09:13:34.127Z,39.54
2022-10-05T09:17:03.823Z,40.89
2022-10-05T09:20:15.200Z,42.45
2022-10-05T09:23:02.116Z,42.64
2022-10-05T09:25:46.141Z,44.40
2022-10-05T09:28:27.718Z,45.77
2022-10-05T09:31:44.643Z,45.69
2022-10-05T09:34:57.977Z,43.91
2022-10-05T09:37:51.193Z,43.57
2022-10-05T09:41:07.661Z,41.92
2022-10-05T09:44:14.234Z,40.49
2022-10-05T09:47:07.716Z,42.16
2022-10-05T09:50:53.265Z,42.67
2022-10-05T09:53:52.181Z,41.81
2022-10-05T09:57:04.328Z,41.78
2022-10-05T10:00:20.772Z,42.17
2022-10-05T10:03:45.985Z,42.62
2022-10-05T10:07:09.210Z,42.07
2022-10-05T10:09:51.523Z,42.40
2022-10-05T10:12:54.950Z,42.32
2022-10-05T10:16:02.525Z,42.69
2022-10-05T10:19:13.356Z,41.87
2022-10-05T10:22:08.513Z,42.01
2022-10-05T10:25:03.360Z,42.32
2022-10-05T10:28:02.575Z,41.77
2022-10-05T10:31:12.974Z,42.13
2022-10-05T10:34:13.316Z,41.94
2022-10-05T10:37:16.462Z,41.97
2022-10-05T10:40:23.463Z,41.55
2022-10-05T10:43:24.856Z,42.00
2022-10-05T10:46:05.767Z,40.62
2022-10-05T10:49:09.643Z,39.86
2022-10-05T10:52:15.967Z,40.18
2022-10-05T10:55:14.185Z,38.61
2022-10-05T10:58:15.091Z,38.12
2022-10-05T11:00:55.793Z,36.54
2022-10-05T11:04:02.826Z,35.75
2022-10-05T11:07:19.973Z,34.52
2022-10-05T11:10:23.687Z,31.87
2022-10-05T11:13:34.179Z,31.25
2022-10-05T11:16:34.596Z,29.21
2022-10-05T11:19:35.067Z,29.08
2022-10-05T11:22:48.158Z,27.70
2022-10-05T11:25:54.621Z,27.50
2022-10-05T11:29:10.775Z,26.78
2022-10-05T11:32:16.076Z,26.67
2022-10-05T11:35:34.559Z,27.55
2022-10-05T11:38:25.015Z,29.00
2022-10-05T11:41:33.894Z,31.05
2022-10-05T11:44:30.675Z,33.12
2022-10-05T11:47:09.848Z,34.14
2022-10-05T11:49:47.286Z,34.20
2022-10-05T11:52:26.466Z,33.79
2022-10-05T11:55:15.274Z,33.57
2022-10-05T11:57:54.168Z,33.99
2022-10-05T12:00:27.333Z,33.82
2022-10-05T12:03:33.453Z,33.04
2022-10-05T12:06:33.108Z,33.49
2022-10-05T12:09:28.032Z,33.28
2022-10-05T12:12:12.658Z,32.80
2022-10-05T12:14:57.209Z,30.75
2022-10-05T12:17:36.023Z,30.88
2022-10-05T12:20:16.154Z,32.51
2022-10-05T12:22:53.428Z,34.45
2022-10-05T12:25:30.326Z,34.44
2022-10-05T12:28:05.061Z,34.44
2022-10-05T12:31:04.067Z,34.27
2022-10-05T12:33:42.198Z,33.15
2022-10-05T12:36:18.381Z,33.28
2022-10-05T12:38:57.160Z,35.21
2022-10-05T12:41:36.733Z,36.38
2022-10-05T12:44:19.782Z,37.50
2022-10-05T12:47:02.633Z,37.50
2022-10-05T12:50:05.094Z,35.48
2022-10-05T12:53:05.125Z,35.38
2022-10-05T12:55:45.661Z,33.60
2022-10-05T12:58:32.388Z,30.37
2022-10-05T13:01:13.074Z,29.32
2022-10-05T13:03:56.235Z,29.19
2022-10-05T13:06:39.157Z,29.00
2022-10-05T13:09:16.563Z,29.93
2022-10-05T13:11:51.955Z,30.06
2022-10-05T13:14:45.194Z,29.83
2022-10-05T13:17:26.883Z,29.31
2022-10-05T13:20:03.274Z,29.87
2022-10-05T13:22:39.823Z,29.46
2022-10-05T13:25:28.694Z,28.83
2022-10-05T13:28:22.236Z,28.73
2022-10-05T13:31:06.547Z,29.70
2022-10-05T13:34:00.579Z,30.36
2022-10-05T13:36:47.190Z,31.23
2022-10-05T13:39:44.079Z,31.87
2022-10-05T13:42:20.963Z,32.22
2022-10-05T13:44:58.882Z,33.78
2022-10-05T13:47:37.947Z,34.38
2022-10-05T13:50:19.646Z,35.93
2022-10-05T13:53:04.643Z,36.25
2022-10-05T13:55:45.955Z,36.71
2022-10-05T13:58:29.251Z,37.74
2022-10-05T14:01:04.599Z,38.32
2022-10-05T14:03:37.687Z,38.41
2022-10-05T14:06:15.918Z,38.48
2022-10-05T14:08:55.570Z,38.47
2022-10-05T14:11:33.269Z,38.54
2022-10-05T14:14:15.515Z,39.21
2022-10-05T14:16:55.041Z,39.37
2022-10-05T14:19:30.666Z,39.70
2022-10-05T14:22:05.616Z,40.19
2022-10-05T14:24:44.002Z,40.68
2022-10-05T14:27:27.424Z,40.37
2022-10-05T14:30:04.895Z,40.11
2022-10-05T14:32:46.124Z,40.00
2022-10-05T14:35:20.871Z,39.35
2022-10-05T14:37:59.803Z,40.05
2022-10-05T14:40:36.110Z,39.86
2022-10-05T14:43:23.368Z,39.77
2022-10-05T14:46:00.953Z,39.81
2022-10-05T14:48:43.167Z,39.44
2022-10-05T14:51:18.927Z,39.63
2022-10-05T14:54:00.850Z,40.45
2022-10-05T14:56:48.924Z,40.93
2022-10-05T14:59:43.568Z,41.40
2022-10-05T15:02:45.324Z,41.34
2022-10-05T15:05:24.884Z,40.56
2022-10-05T15:07:59.798Z,39.77
2022-10-05T15:10:36.592Z,39.45
2022-10-05T15:13:18.478Z,41.17
2022-10-05T15:15:55.057Z,42.45
2022-10-05T15:18:46.182Z,43.69
2022-10-05T15:21:42.441Z,43.97
2022-10-05T15:24:20.332Z,44.96
2022-10-05T15:26:53.932Z,44.97
2022-10-05T15:29:52.010Z,45.48
2022-10-05T15:32:41.760Z,46.46
2022-10-05T15:35:57.190Z,46.93
2022-10-05T15:38:30.653Z,48.14
2022-10-05T15:41:10.547Z,49.29
2022-10-05T15:44:00.663Z,50.83
2022-10-05T15:46:38.997Z,51.75
2022-10-05T15:49:25.960Z,51.74
2022-10-05T15:52:08.013Z,51.88
2022-10-05T15:55:08.289Z,52.74
2022-10-05T15:57:48.410Z,54.45
2022-10-05T16:00:22.234Z,55.16
2022-10-05T16:03:09.689Z,56.37
2022-10-05T16:05:59.535Z,56.74
2022-10-05T16:08:56.823Z,57.15
2022-10-05T16:11:50.432Z,58.09
2022-10-05T16:14:35.498Z,58.57
2022-10-05T16:17:23.801Z,59.22
2022-10-05T16:20:14.792Z,59.98
2022-10-05T16:22:59.800Z,60.16
2022-10-05T16:25:44.250Z,60.07
2022-10-05T16:28:29.290Z,60.63
2022-10-05T16:31:09.063Z,61.46
2022-10-05T16:33:55.914Z,62.10
2022-10-05T16:36:44.601Z,63.17
2022-10-05T16:39:23.751Z,63.89
2022-10-05T16:42:05.555Z,64.92
2022-10-05T16:44:46.000Z,64.94
2022-10-05T16:47:40.043Z,64.98
2022-10-05T16:50:24.879Z,64.68
2022-10-05T16:53:04.939Z,65.05
2022-10-05T16:55:40.563Z,64.87
2022-10-05T16:58:24.018Z,65.37
2022-10-05T17:01:11.549Z,65.41
2022-10-05T17:04:00.244Z,65.60
2022-10-05T17:07:00.924Z,65.61
2022-10-05T17:09:58.722Z,66.13
2022-10-05T17:12:50.793Z,66.08
2022-10-05T17:15:44.504Z,66.62
2022-10-05T17:18:50.991Z,66.65
2022-10-05T17:21:28.737Z,66.43
2022-10-05T17:24:21.702Z,66.92
2022-10-05T17:27:20.662Z,67.38
2022-10-05T17:29:54.735Z,67.92
2022-10-05T17:32:43.374Z,68.90
2022-10-05T17:35:22.673Z,69.22
2022-10-05T17:38:15.730Z,70.43
2022-10-05T17:41:21.865Z,71.06
2022-10-05T17:44:30.822Z,71.55
2022-10-05T17:47:04.102Z,71.93
2022-10-05T17:50:12.706Z,72.72
2022-10-05T17:52:59.977Z,73.11
2022-10-05T17:55:50.199Z,73.18
2022-10-05T17:59:06.782Z,73.70
2022-10-05T18:01:42.791Z,74.15
2022-10-05T18:04:42.959Z,74.10
2022-10-05T18:07:26.668Z,74.38
2022-10-05T18:10:01.200Z,73.80
2022-10-05T18:12:48.024Z,74.30
2022-10-05T18:15:45.873Z,73.34
2022-10-05T18:18:59.382Z,74.00
2022-10-05T18:21:38.571Z,74.42
2022-10-05T18:24:53.216Z,74.28
2022-10-05T18:27:48.178Z,74.93
2022-10-05T18:30:25.327Z,74.46
2022-10-05T18:33:32.170Z,75.21
2022-10-05T18:36:24.520Z,74.88
2022-10-05T18:39:04.291Z,75.32
2022-10-05T18:41:49.301Z,75.56
2022-10-05T18:44:34.840Z,75.41
2022-10-05T18:47:16.749Z,76.37
2022-10-05T18:50:02.068Z,77.10
2022-10-05T18:52:49.854Z,77.75
2022-10-05T18:55:32.916Z,77.54
2022-10-05T18:58:27.131Z,77.23
2022-10-05T19:01:27.174Z,77.38
2022-10-05T19:04:12.843Z,77.43
2022-10-05T19:06:56.886Z,77.24
2022-10-05T19:10:00.413Z,77.04
2022-10-05T19:12:47.575Z,77.09
2022-10-05T19:15:28.431Z,76.77
2022-10-05T19:18:15.287Z,76.25
2022-10-05T19:20:56.770Z,77.02
2022-10-05T19:23:54.048Z,76.68
2022-10-05T19:26:49.962Z,76.43
2022-10-05T19:29:38.798Z,76.79
2022-10-05T19:32:21.546Z,75.90
2022-10-05T19:35:08.951Z,75.56
2022-10-05T19:37:50.145Z,75.67
2022-10-05T19:40:31.114Z,74.89
2022-10-05T19:43:23.606Z,74.47
2022-10-05T19:46:19.013Z,73.82
2022-10-05T19:48:53.569Z,73.79
2022-10-05T19:51:32.706Z,73.85
2022-10-05T19:54:08.016Z,73.62
2022-10-05T19:56:52.953Z,72.90
2022-10-05T19:59:31.538Z,72.91
2022-10-05T20:02:04.364Z,72.59
2022-10-05T20:04:38.313Z,72.24
2022-10-05T20:07:11.010Z,72.14
2022-10-05T20:09:59.577Z,72.16
2022-10-05T20:12:51.480Z,71.65
2022-10-05T20:15:40.255Z,71.62
2022-10-05T20:18:54.820Z,71.24
2022-10-05T20:21:47.444Z,71.50
2022-10-05T20:24:20.348Z,71.20
2022-10-05T20:27:05.838Z,71.00
2022-10-05T20:29:38.686Z,71.12
2022-10-05T20:32:13.842Z,70.57
2022-10-05T20:34:47.199Z,70.96
2022-10-05T20:37:20.211Z,70.92
2022-10-05T20:39:51.320Z,71.41
2022-10-05T20:42:23.989Z,71.28
2022-10-05T20:44:56.914Z,71.57
2022-10-05T20:47:30.189Z,71.68
2022-10-05T20:50:01.294Z,71.87
2022-10-05T20:52:31.489Z,72.19
2022-10-05T20:55:02.068Z,72.39
2022-10-05T20:57:32.605Z,72.31
2022-10-05T21:00:02.784Z,72.52
2022-10-05T21:02:36.145Z,73.18
2022-10-05T21:05:07.852Z,73.57
2022-10-05T21:07:38.155Z,73.52
2022-10-05T21:10:09.841Z,73.79
2022-10-05T21:12:40.077Z,74.09
2022-10-05T21:15:12.527Z,74.12
2022-10-05T21:17:45.329Z,74.59
2022-10-05T21:20:15.765Z,75.02
2022-10-05T21:22:45.960Z,74.83
2022-10-05T21:25:16.256Z,75.41
2022-10-05T21:27:46.547Z,75.98
2022-10-05T21:30:17.008Z,76.29
2022-10-05T21:32:49.917Z,76.61
2022-10-05T21:35:20.099Z,76.29
2022-10-05T21:37:50.283Z,76.56
2022-10-05T21:40:20.505Z,76.46
2022-10-05T21:42:50.704Z,76.21
2022-10-05T21:45:20.854Z,75.82
2022-10-05T21:47:53.883Z,75.44
2022-10-05T21:50:24.107Z,75.50
2022-10-05T21:52:54.841Z,75.20
2022-10-05T21:55:24.736Z,75.16
2022-10-05T21:57:55.220Z,75.67
2022-10-05T22:00:25.551Z,76.08
2022-10-05T22:02:58.434Z,76.38
2022-10-05T22:05:28.764Z,76.02
2022-10-05T22:07:59.013Z,76.11
2022-10-05T22:10:29.259Z,75.80
2022-10-05T22:13:03.484Z,75.81
2022-10-05T22:15:34.397Z,76.40
2022-10-05T22:18:07.347Z,76.38
2022-10-05T22:20:37.775Z,76.72
2022-10-05T22:23:07.933Z,76.61
2022-10-05T22:25:38.321Z,77.39
2022-10-05T22:28:12.414Z,77.73
2022-10-05T22:30:43.038Z,78.00
2022-10-05T22:33:15.964Z,78.20
2022-10-05T22:35:46.525Z,78.40
2022-10-05T22:38:16.659Z,78.55
2022-10-05T22:40:46.848Z,78.54
2022-10-05T22:43:17.013Z,78.79
2022-10-05T22:45:47.219Z,78.73
2022-10-05T22:48:20.133Z,78.78
2022-10-05T22:50:50.465Z,79.19
2022-10-05T22:53:20.883Z,79.11
2022-10-05T22:55:50.995Z,79.27
2022-10-05T22:58:21.219Z,78.52
2022-10-05T23:00:58.450Z,77.97
2022-10-05T23:03:31.606Z,77.56
2022-10-05T23:06:03.836Z,77.25
2022-10-05T23:08:35.170Z,76.74
2022-10-05T23:11:06.362Z,76.84
2022-10-05T23:13:36.603Z,76.55
2022-10-05T23:16:11.260Z,76.92
2022-10-05T23:18:44.780Z,77.08
2022-10-05T23:21:14.998Z,77.31
2022-10-05T23:23:49.070Z,76.91
2022-10-05T23:26:21.364Z,76.75
2022-10-05T23:28:52.097Z,77.20
2022-10-05T23:31:24.697Z,77.52
2022-10-05T23:33:57.942Z,76.73
2022-10-05T23:36:32.392Z,77.01
2022-10-05T23:39:03.055Z,77.35
2022-10-05T23:41:33.267Z,77.14
2022-10-05T23:44:03.493Z,77.13
2022-10-05T23:46:33.683Z,77.39
2022-10-05T23:49:07.113Z,77.25
2022-10-05T23:51:37.360Z,77.20
2022-10-05T23:54:07.801Z,76.86
2022-10-05T23:56:37.991Z,76.72
2022-10-05T23:59:08.133Z,77.42
